Time;durP1;ratioP1;P1;durP2;ratioP2;P2;SDS_P1;SDS_P2;PMS_P1;PMS_P2;Temp;Humidity;BMP_temperature;BMP_pressure;BME280_temperature;BME280_humidity;BME280_pressure;Samples;Min_cycle;Max_cycle;Signal;HPM_P1;HPM_P2
2023/11/08 00:00:07;;;;;;;11.40;5.63;;;;;;;2.52;100.00;97458.16;5044043;28;20411;-80
2023/11/08 00:02:34;;;;;;;11.80;5.50;;;;;;;2.50;100.00;97454.13;5047480;28;20399;-80
2023/11/08 00:05:00;;;;;;;13.48;5.57;;;;;;;2.46;100.00;97445.91;5043217;28;20406;-79
2023/11/08 00:07:26;;;;;;;12.38;5.85;;;;;;;2.43;100.00;97442.84;5044246;28;20426;-79
2023/11/08 00:09:54;;;;;;;9.07;5.10;;;;;;;2.39;100.00;97445.06;5042841;28;20426;-79
2023/11/08 00:12:20;;;;;;;9.38;5.82;;;;;;;2.36;100.00;97437.63;5042943;28;20408;-79
2023/11/08 00:14:48;;;;;;;10.50;5.40;;;;;;;2.38;100.00;97440.03;5042769;28;20418;-79
2023/11/08 00:17:14;;;;;;;9.70;5.47;;;;;;;2.43;100.00;97440.25;5042820;28;20419;-79
2023/11/08 00:19:41;;;;;;;7.07;4.82;;;;;;;2.49;100.00;97445.47;5043072;28;20803;-79
2023/11/08 00:22:07;;;;;;;13.95;6.43;;;;;;;2.53;100.00;97441.47;5043382;28;20420;-79
2023/11/08 00:24:33;;;;;;;11.82;5.82;;;;;;;2.60;100.00;97446.72;5042566;28;20868;-79
2023/11/08 00:26:59;;;;;;;8.57;5.68;;;;;;;2.66;100.00;97451.94;5043947;28;20411;-78
2023/11/08 00:29:25;;;;;;;8.30;5.32;;;;;;;2.75;100.00;97457.78;5044417;28;20402;-79
2023/11/08 00:31:53;;;;;;;7.73;4.67;;;;;;;2.84;100.00;97461.84;5043469;28;20399;-80
2023/11/08 00:34:20;;;;;;;8.57;4.45;;;;;;;2.92;100.00;97468.69;5028590;28;20446;-80
2023/11/08 00:36:46;;;;;;;9.43;5.13;;;;;;;3.00;100.00;97465.88;5025195;28;20507;-80
2023/11/08 00:39:15;;;;;;;11.07;5.15;;;;;;;3.08;100.00;97465.66;5025223;28;20762;-79
2023/11/08 00:41:41;;;;;;;12.10;5.18;;;;;;;3.15;100.00;97468.28;5023152;28;20752;-79
2023/11/08 00:44:09;;;;;;;13.02;5.70;;;;;;;3.21;100.00;97473.50;5029594;28;20395;-80
2023/11/08 00:46:35;;;;;;;8.63;5.35;;;;;;;3.31;100.00;97473.06;5042714;28;20402;-79
2023/11/08 00:49:03;;;;;;;10.13;5.40;;;;;;;3.38;100.00;97477.28;5042774;28;20407;-79
2023/11/08 00:51:29;;;;;;;15.38;6.57;;;;;;;3.45;100.00;97479.94;5041113;28;20399;-79
2023/11/08 00:53:55;;;;;;;11.55;5.93;;;;;;;3.58;100.00;97481.72;5040825;28;20395;-79
2023/11/08 00:56:21;;;;;;;15.55;6.85;;;;;;;3.64;100.00;97473.03;5040053;28;20982;-78
2023/11/08 00:58:48;;;;;;;11.32;6.15;;;;;;;3.73;100.00;97477.03;5040153;28;20411;-78
2023/11/08 01:01:14;;;;;;;12.93;6.60;;;;;;;3.80;100.00;97472.59;5043240;28;20778;-78
2023/11/08 01:03:40;;;;;;;11.43;6.10;;;;;;;3.84;100.00;97476.41;5044241;28;20403;-80
2023/11/08 01:06:07;;;;;;;16.17;7.95;;;;;;;3.84;100.00;97474.59;5043611;28;20474;-80
2023/11/08 01:08:34;;;;;;;12.80;6.77;;;;;;;3.82;100.00;97471.38;5041482;28;20399;-80
2023/11/08 01:11:00;;;;;;;11.55;6.13;;;;;;;3.76;100.00;97466.19;5040702;28;20403;-80
2023/11/08 01:13:26;;;;;;;9.30;5.65;;;;;;;3.70;100.00;97478.25;5043646;28;20391;-80
2023/11/08 01:15:52;;;;;;;14.38;7.55;;;;;;;3.63;100.00;97480.09;5042834;28;20421;-80
2023/11/08 01:18:18;;;;;;;12.50;6.50;;;;;;;3.62;100.00;97469.81;5043050;28;20414;-80
2023/11/08 01:20:44;;;;;;;14.02;6.40;;;;;;;3.56;100.00;97474.06;5043109;28;20399;-80
2023/11/08 01:23:13;;;;;;;16.58;6.85;;;;;;;3.49;100.00;97463.59;5047210;28;20410;-79
2023/11/08 01:25:41;;;;;;;14.27;6.85;;;;;;;3.47;100.00;97464.81;5040111;28;20528;-79
2023/11/08 01:28:08;;;;;;;11.23;5.88;;;;;;;3.40;100.00;97469.25;5040595;28;20399;-79
2023/11/08 01:30:34;;;;;;;10.52;5.45;;;;;;;3.33;100.00;97469.25;5047325;28;20403;-78
2023/11/08 01:33:00;;;;;;;7.82;5.00;;;;;;;3.28;100.00;97463.84;5034258;28;20484;-78
2023/11/08 01:35:27;;;;;;;11.63;5.40;;;;;;;3.25;100.00;97461.63;5032131;28;20431;-80
2023/11/08 01:37:53;;;;;;;11.15;5.72;;;;;;;3.23;100.00;97462.84;5041127;28;20399;-78
2023/11/08 01:40:21;;;;;;;9.55;5.40;;;;;;;3.22;100.00;97467.28;5040017;28;20445;-78
2023/11/08 01:42:47;;;;;;;11.20;6.13;;;;;;;3.19;100.00;97459.00;5041985;28;20398;-78
2023/11/08 01:45:14;;;;;;;7.80;4.93;;;;;;;3.13;100.00;97460.63;5026976;28;20396;-78
2023/11/08 01:47:40;;;;;;;9.40;4.70;;;;;;;3.09;100.00;97467.25;5025263;28;20412;-79
2023/11/08 01:50:09;;;;;;;8.10;5.10;;;;;;;3.04;100.00;97461.81;5026068;28;20504;-80
2023/11/08 01:52:36;;;;;;;8.60;4.83;;;;;;;2.98;100.00;97466.06;5025147;28;20442;-80
2023/11/08 01:55:04;;;;;;;7.85;4.82;;;;;;;2.94;100.00;97461.41;5020937;28;20450;-80
2023/11/08 01:57:32;;;;;;;11.32;5.70;;;;;;;2.94;100.00;97454.38;5020995;28;20428;-77
2023/11/08 01:59:58;;;;;;;8.23;5.10;;;;;;;2.96;100.00;97456.78;5021782;28;20388;-80
2023/11/08 02:02:25;;;;;;;7.88;4.97;;;;;;;2.94;100.00;97453.56;5021910;28;20463;-80
2023/11/08 02:04:53;;;;;;;8.57;5.05;;;;;;;2.93;100.00;97454.59;5023386;28;20480;-80
2023/11/08 02:07:19;;;;;;;10.50;5.15;;;;;;;2.94;100.00;97453.56;5022170;28;20412;-80
2023/11/08 02:09:45;;;;;;;8.82;5.47;;;;;;;2.95;100.00;97453.38;5021393;28;20408;-80
2023/11/08 02:12:12;;;;;;;9.80;5.03;;;;;;;2.97;100.00;97450.56;5021924;28;20393;-80
2023/11/08 02:15:02;;;;;;;11.02;5.30;;;;;;;3.01;100.00;97454.38;5021485;28;20766;-80
2023/11/08 02:17:28;;;;;;;9.00;4.90;;;;;;;3.02;100.00;97445.53;5023232;28;20424;-79
2023/11/08 02:19:55;;;;;;;9.93;4.80;;;;;;;3.02;100.00;97451.56;5022177;28;20480;-80
2023/11/08 02:22:21;;;;;;;11.43;5.10;;;;;;;3.07;100.00;97443.94;5022527;28;20405;-80
2023/11/08 02:24:49;;;;;;;7.43;4.70;;;;;;;3.13;100.00;97444.13;5023348;28;20493;-80
2023/11/08 02:27:15;;;;;;;8.70;4.67;;;;;;;3.15;100.00;97448.16;5022297;28;20481;-80
2023/11/08 02:29:41;;;;;;;9.55;4.60;;;;;;;3.16;100.00;97447.13;5022280;28;20400;-80
2023/11/08 02:32:09;;;;;;;6.60;4.43;;;;;;;3.15;100.00;97442.13;5022480;28;20404;-80
2023/11/08 02:34:35;;;;;;;6.03;4.10;;;;;;;3.11;100.00;97437.28;5041951;28;20399;-80
2023/11/08 02:37:02;;;;;;;5.60;3.70;;;;;;;3.05;100.00;97440.72;5041764;28;20415;-80
2023/11/08 02:39:28;;;;;;;7.20;3.70;;;;;;;2.96;100.00;97436.69;5042264;28;20440;-80
2023/11/08 02:41:56;;;;;;;7.05;4.10;;;;;;;2.94;100.00;97443.09;5041927;28;20403;-80
2023/11/08 02:44:22;;;;;;;8.38;3.75;;;;;;;2.94;100.00;97443.09;5032353;28;20439;-80
2023/11/08 02:46:48;;;;;;;6.97;4.25;;;;;;;2.93;100.00;97447.53;5022113;28;20407;-80
2023/11/08 02:49:14;;;;;;;6.00;3.67;;;;;;;2.94;100.00;97443.09;5022719;28;20908;-80
2023/11/08 02:51:40;;;;;;;5.65;3.53;;;;;;;2.92;100.00;97439.91;5021557;28;20404;-80
2023/11/08 02:54:08;;;;;;;5.22;3.78;;;;;;;2.89;100.00;97441.09;5021341;28;20397;-80
2023/11/08 02:56:37;;;;;;;5.15;4.07;;;;;;;2.89;100.00;97450.75;5026502;28;20492;-80
2023/11/08 02:59:05;;;;;;;5.78;3.50;;;;;;;2.86;100.00;97443.31;5021549;28;20405;-80
2023/11/08 03:01:31;;;;;;;6.82;4.07;;;;;;;2.81;100.00;97443.91;5021063;28;20392;-80
2023/11/08 03:03:57;;;;;;;6.90;4.00;;;;;;;2.79;100.00;97445.91;5021138;28;20462;-80
2023/11/08 03:06:23;;;;;;;4.55;3.60;;;;;;;2.77;100.00;97445.34;5021026;28;20409;-80
2023/11/08 03:08:49;;;;;;;5.50;3.55;;;;;;;2.72;100.00;97448.53;5021464;28;20417;-79
2023/11/08 03:11:15;;;;;;;6.63;3.60;;;;;;;2.69;100.00;97443.72;5021193;28;20408;-80
2023/11/08 03:13:41;;;;;;;4.65;3.47;;;;;;;2.68;100.00;97446.53;5020995;28;20411;-80
2023/11/08 03:16:09;;;;;;;6.70;3.60;;;;;;;2.62;100.00;97452.56;5022244;28;20427;-80
2023/11/08 03:18:35;;;;;;;5.63;4.20;;;;;;;2.60;100.00;97462.41;5022488;28;20862;-80
2023/11/08 03:21:01;;;;;;;6.35;3.97;;;;;;;2.55;100.00;97457.78;5027935;28;20407;-80
2023/11/08 03:23:28;;;;;;;5.72;4.00;;;;;;;2.53;100.00;97462.38;5021439;28;20488;-80
2023/11/08 03:25:55;;;;;;;7.03;3.75;;;;;;;2.50;100.00;97464.56;5021013;28;20484;-80
2023/11/08 03:28:21;;;;;;;7.17;4.43;;;;;;;2.46;100.00;97458.16;5020237;28;20902;-80
2023/11/08 03:30:47;;;;;;;12.15;5.68;;;;;;;2.49;100.00;97466.38;5020435;28;20397;-80
2023/11/08 03:33:14;;;;;;;8.65;4.90;;;;;;;2.56;100.00;97466.41;5019517;28;20408;-80
2023/11/08 03:35:41;;;;;;;8.93;4.80;;;;;;;2.64;100.00;97466.22;5019892;28;20901;-80
2023/11/08 03:38:07;;;;;;;7.22;4.78;;;;;;;2.70;100.00;97460.22;5019588;28;20400;-80
2023/11/08 03:40:33;;;;;;;13.02;5.60;;;;;;;2.74;100.00;97474.47;5019580;28;20405;-80
2023/11/08 03:42:59;;;;;;;8.52;5.25;;;;;;;2.82;100.00;97476.09;5019608;28;20401;-79
2023/11/08 03:45:25;;;;;;;9.03;5.10;;;;;;;2.89;100.00;97476.91;5036398;28;20432;-81
2023/11/08 03:47:52;;;;;;;8.00;5.32;;;;;;;2.97;100.00;97476.72;5039369;28;20434;-80
2023/11/08 03:50:19;;;;;;;8.18;4.90;;;;;;;3.02;100.00;97479.53;5039703;28;20394;-81
2023/11/08 03:52:47;;;;;;;8.77;5.05;;;;;;;3.07;100.00;97477.94;5039817;28;20445;-80
2023/11/08 03:55:13;;;;;;;7.20;4.50;;;;;;;3.12;100.00;97477.31;5039794;28;20413;-79
2023/11/08 03:57:41;;;;;;;7.18;4.95;;;;;;;3.17;100.00;97480.13;5021401;28;20470;-80
2023/11/08 04:00:08;;;;;;;7.20;4.47;;;;;;;3.22;100.00;97476.91;5039704;28;20463;-81
2023/11/08 04:02:35;;;;;;;10.07;5.35;;;;;;;3.30;100.00;97479.34;5039480;28;20402;-79
2023/11/08 04:05:01;;;;;;;12.30;5.53;;;;;;;3.36;100.00;97475.91;5038589;28;20406;-80
2023/11/08 04:07:28;;;;;;;11.70;6.30;;;;;;;3.41;100.00;97476.91;5039561;28;20402;-80
2023/11/08 04:09:55;;;;;;;11.13;5.55;;;;;;;3.44;100.00;97486.97;5039460;28;20399;-81
2023/11/08 04:12:21;;;;;;;7.27;4.60;;;;;;;3.46;100.00;97491.97;5038888;28;20988;-80
2023/11/08 04:14:47;;;;;;;9.07;4.57;;;;;;;3.45;100.00;97491.19;5039399;28;20449;-80
2023/11/08 04:17:15;;;;;;;11.98;5.82;;;;;;;3.47;100.00;97490.97;5039705;28;20919;-80
2023/11/08 04:19:41;;;;;;;20.73;7.90;;;;;;;3.50;100.00;97485.34;5039356;28;20490;-80
2023/11/08 04:22:09;;;;;;;18.92;7.60;;;;;;;3.51;100.00;97486.97;5040148;28;20393;-80
2023/11/08 04:24:37;;;;;;;12.63;5.93;;;;;;;3.52;100.00;97495.63;5044124;28;20448;-81
2023/11/08 04:27:03;;;;;;;11.23;6.00;;;;;;;3.50;100.00;97496.63;5044715;28;20976;-80
2023/11/08 04:29:31;;;;;;;11.97;5.97;;;;;;;3.50;100.00;97493.19;5046238;28;20409;-79
2023/11/08 04:31:57;;;;;;;12.10;5.78;;;;;;;3.46;100.00;97498.00;5029240;28;20466;-80
2023/11/08 04:34:23;;;;;;;9.15;5.10;;;;;;;3.44;100.00;97501.88;5045653;28;20514;-80
2023/11/08 04:36:49;;;;;;;12.23;5.32;;;;;;;3.46;100.00;97505.06;5045599;28;20489;-80
2023/11/08 04:39:16;;;;;;;10.10;5.15;;;;;;;3.52;100.00;97503.47;5047592;28;20426;-80
2023/11/08 04:41:45;;;;;;;9.00;5.13;;;;;;;3.56;100.00;97502.84;5044805;28;20406;-80
2023/11/08 04:44:11;;;;;;;16.90;6.43;;;;;;;3.59;100.00;97501.66;5044017;28;20403;-81
2023/11/08 04:46:40;;;;;;;8.52;5.43;;;;;;;3.63;100.00;97503.63;5044574;28;20411;-81
2023/11/08 04:49:07;;;;;;;10.75;5.68;;;;;;;3.63;100.00;97503.63;5042670;28;20452;-81
2023/11/08 04:51:33;;;;;;;13.90;6.35;;;;;;;3.61;100.00;97503.03;5037061;28;20391;-80
2023/11/08 04:53:59;;;;;;;18.27;7.85;;;;;;;3.61;100.00;97500.41;5034627;28;20414;-80
2023/11/08 04:56:25;;;;;;;18.77;7.40;;;;;;;3.69;100.00;97500.19;5033024;28;20424;-81
2023/11/08 04:58:52;;;;;;;19.97;7.90;;;;;;;3.73;100.00;97511.06;5032660;28;20411;-80
2023/11/08 05:01:19;;;;;;;16.83;7.23;;;;;;;3.74;100.00;97505.66;5032601;28;20859;-81
2023/11/08 05:03:46;;;;;;;18.58;7.78;;;;;;;3.73;100.00;97504.03;5034639;28;20475;-80
2023/11/08 05:06:12;;;;;;;21.55;7.13;;;;;;;3.75;100.00;97495.97;5038074;28;20426;-81
2023/11/08 05:08:38;;;;;;;10.48;5.78;;;;;;;3.74;100.00;97497.78;5035369;28;20740;-81
2023/11/08 05:11:04;;;;;;;14.45;6.30;;;;;;;3.69;100.00;97500.19;5037844;28;20399;-81
2023/11/08 05:13:31;;;;;;;16.23;7.07;;;;;;;3.61;100.00;97504.88;5040857;28;20407;-81
2023/11/08 05:15:59;;;;;;;12.82;5.90;;;;;;;3.54;100.00;97496.19;5043307;28;20747;-81
2023/11/08 05:18:25;;;;;;;9.00;5.30;;;;;;;3.43;100.00;97495.81;5047115;28;20407;-81
2023/11/08 05:20:51;;;;;;;12.23;5.65;;;;;;;3.37;100.00;97496.63;5037764;28;20406;-81
2023/11/08 05:23:18;;;;;;;9.10;5.13;;;;;;;3.32;100.00;97503.47;5038705;28;20402;-81
2023/11/08 05:25:44;;;;;;;9.90;5.00;;;;;;;3.24;100.00;97506.28;5040621;28;20435;-81
2023/11/08 05:28:10;;;;;;;7.45;4.78;;;;;;;3.16;100.00;97511.75;5040026;28;20439;-81
2023/11/08 05:30:37;;;;;;;7.30;4.40;;;;;;;3.08;100.00;97512.75;5041067;28;20410;-83
2023/11/08 05:33:05;;;;;;;7.63;4.50;;;;;;;3.01;100.00;97504.06;5034840;28;20404;-83
2023/11/08 05:35:31;;;;;;;8.27;4.57;;;;;;;2.95;100.00;97502.25;5039877;28;20408;-83
2023/11/08 05:37:57;;;;;;;7.40;4.40;;;;;;;2.90;100.00;97504.66;5031588;28;20447;-81
2023/11/08 05:40:24;;;;;;;6.53;4.20;;;;;;;2.83;100.00;97502.03;5036237;28;20442;-82
2023/11/08 05:42:50;;;;;;;10.07;4.97;;;;;;;2.79;100.00;97510.47;5041095;28;20406;-83
2023/11/08 05:45:17;;;;;;;10.70;4.63;;;;;;;2.73;100.00;97504.22;5039451;28;20470;-83
2023/11/08 05:47:44;;;;;;;6.88;4.95;;;;;;;2.69;100.00;97509.06;5041537;28;20411;-83
2023/11/08 05:50:13;;;;;;;12.15;5.82;;;;;;;2.65;100.00;97507.81;5047913;28;20399;-83
2023/11/08 05:52:40;;;;;;;9.97;4.93;;;;;;;2.62;100.00;97507.44;5041481;28;20403;-83
2023/11/08 05:55:07;;;;;;;14.23;5.68;;;;;;;2.59;100.00;97513.84;5040678;28;20459;-81
2023/11/08 05:57:33;;;;;;;8.88;5.18;;;;;;;2.56;100.00;97513.41;5037131;28;20714;-81
2023/11/08 06:00:07;;;;;;;10.35;5.15;;;;;;;2.50;100.00;97509.00;5034646;28;20410;-82
2023/11/08 06:02:34;;;;;;;10.43;5.45;;;;;;;2.46;100.00;97513.00;5028591;28;20423;-80
2023/11/08 06:05:00;;;;;;;9.48;4.88;;;;;;;2.42;100.00;97512.59;5025946;28;20408;-81
2023/11/08 06:07:28;;;;;;;9.30;5.20;;;;;;;2.40;100.00;97509.38;5028563;28;20433;-82
2023/11/08 06:09:54;;;;;;;12.43;6.03;;;;;;;2.38;100.00;97521.03;5020452;28;20400;-82
2023/11/08 06:12:21;;;;;;;10.20;5.20;;;;;;;2.34;100.00;97524.00;5020927;28;20411;-82
2023/11/08 06:14:47;;;;;;;9.60;5.18;;;;;;;2.30;100.00;97519.38;5018273;28;20397;-82
2023/11/08 06:17:13;;;;;;;10.13;5.10;;;;;;;2.26;100.00;97524.19;5019086;28;20412;-82
2023/11/08 06:19:39;;;;;;;9.15;5.05;;;;;;;2.21;100.00;97526.56;5019146;28;20397;-82
2023/11/08 06:22:05;;;;;;;10.93;5.50;;;;;;;2.18;100.00;97529.56;5019293;28;20401;-81
2023/11/08 06:24:34;;;;;;;12.35;5.45;;;;;;;2.16;100.00;97534.19;5019743;28;20407;-80
2023/11/08 06:27:02;;;;;;;11.43;5.80;;;;;;;2.15;100.00;97534.38;5025033;28;20439;-84
2023/11/08 06:29:28;;;;;;;12.38;5.82;;;;;;;2.12;100.00;97534.75;5025137;28;20495;-81
2023/11/08 06:31:56;;;;;;;10.23;5.15;;;;;;;2.09;100.00;97537.78;5025878;28;20491;-82
2023/11/08 06:34:24;;;;;;;13.50;6.10;;;;;;;2.09;100.00;97532.56;5042733;28;20403;-81
2023/11/08 06:36:50;;;;;;;13.68;5.80;;;;;;;2.08;100.00;97531.75;5040899;28;21033;-81
2023/11/08 06:39:17;;;;;;;12.85;6.13;;;;;;;2.10;100.00;97534.16;5042439;28;20403;-83
2023/11/08 06:41:44;;;;;;;12.35;6.05;;;;;;;2.10;100.00;97536.78;5045685;28;20902;-84
2023/11/08 06:44:11;;;;;;;10.98;5.80;;;;;;;2.10;100.00;97540.19;5047756;28;20399;-82
2023/11/08 06:46:37;;;;;;;10.77;5.40;;;;;;;2.11;100.00;97538.38;5047981;28;20411;-81
2023/11/08 06:49:03;;;;;;;10.50;5.70;;;;;;;2.13;100.00;97533.75;5047706;28;20403;-82
2023/11/08 06:51:30;;;;;;;12.48;6.03;;;;;;;2.15;100.00;97537.00;5047261;28;20391;-81
2023/11/08 06:53:57;;;;;;;13.38;6.40;;;;;;;2.19;100.00;97543.44;5046660;28;20978;-82
2023/11/08 06:56:23;;;;;;;13.85;6.53;;;;;;;2.20;100.00;97540.63;5046410;28;20415;-85
2023/11/08 06:58:51;;;;;;;12.25;6.28;;;;;;;2.26;100.00;97546.88;5044082;28;20937;-85
2023/11/08 07:01:17;;;;;;;14.80;6.22;;;;;;;2.29;100.00;97539.47;5045300;28;20506;-84
2023/11/08 07:03:43;;;;;;;11.55;6.20;;;;;;;2.32;100.00;97539.09;5046294;28;20393;-85
2023/11/08 07:06:09;;;;;;;15.80;6.22;;;;;;;2.35;100.00;97543.09;5044252;28;20780;-83
2023/11/08 07:08:35;;;;;;;14.30;6.20;;;;;;;2.38;100.00;97547.94;5046453;28;20802;-84
2023/11/08 07:11:02;;;;;;;10.45;6.00;;;;;;;2.43;100.00;97550.78;5048700;28;20399;-85
2023/11/08 07:13:28;;;;;;;14.65;7.20;;;;;;;2.50;100.00;97556.03;5049332;28;20441;-82
2023/11/08 07:15:56;;;;;;;18.53;7.53;;;;;;;2.54;100.00;97558.06;5043723;28;20472;-85
2023/11/08 07:18:22;;;;;;;18.23;7.73;;;;;;;2.58;100.00;97559.28;5043608;28;20419;-83
2023/11/08 07:20:48;;;;;;;16.40;7.35;;;;;;;2.65;100.00;97560.09;5044697;28;20403;-84
2023/11/08 07:23:14;;;;;;;16.45;7.00;;;;;;;2.73;100.00;97564.34;5046317;28;20410;-84
2023/11/08 07:25:41;;;;;;;12.68;6.45;;;;;;;2.81;100.00;97574.63;5045005;28;20399;-84
2023/11/08 07:28:07;;;;;;;16.42;7.15;;;;;;;2.88;100.00;97575.44;5046589;28;20421;-81
2023/11/08 07:30:34;;;;;;;14.40;6.93;;;;;;;2.94;100.00;97574.66;5037509;28;20595;-80
2023/11/08 07:33:02;;;;;;;20.77;8.23;;;;;;;3.02;100.00;97581.50;5040317;28;20407;-80
2023/11/08 07:35:29;;;;;;;13.38;6.63;;;;;;;3.09;100.00;97588.34;5038476;28;20391;-79
2023/11/08 07:37:55;;;;;;;26.30;9.80;;;;;;;3.17;100.00;97586.56;5040532;28;20822;-79
2023/11/08 07:40:21;;;;;;;20.50;8.60;;;;;;;3.28;100.00;97583.38;5041231;28;20406;-79
2023/11/08 07:42:47;;;;;;;14.45;7.72;;;;;;;3.38;100.00;97581.16;5042483;28;20402;-81
2023/11/08 07:45:14;;;;;;;21.73;8.48;;;;;;;3.43;100.00;97581.38;5043196;28;20490;-79
2023/11/08 07:47:40;;;;;;;23.83;9.43;;;;;;;3.45;100.00;97588.03;5039181;28;20490;-80
2023/11/08 07:50:08;;;;;;;14.00;7.03;;;;;;;3.50;100.00;97588.22;5041532;28;20434;-81
2023/11/08 07:52:34;;;;;;;11.60;6.50;;;;;;;3.51;100.00;97589.03;5041385;28;20760;-80
2023/11/08 07:55:01;;;;;;;16.08;6.43;;;;;;;3.54;100.00;97583.38;5041052;28;20399;-80
2023/11/08 07:57:27;;;;;;;13.68;6.28;;;;;;;3.59;100.00;97582.78;5041237;28;20422;-79
2023/11/08 07:59:54;;;;;;;14.73;7.53;;;;;;;3.65;100.00;97585.38;5040914;28;20416;-79
2023/11/08 08:02:20;;;;;;;11.13;6.75;;;;;;;3.75;100.00;97585.78;5041296;28;20423;-80
2023/11/08 08:04:47;;;;;;;13.80;6.90;;;;;;;3.86;100.00;97590.41;5034775;28;20746;-80
2023/11/08 08:07:14;;;;;;;19.45;7.00;;;;;;;3.98;100.00;97589.81;5039592;28;20909;-80
2023/11/08 08:09:40;;;;;;;9.88;5.47;;;;;;;4.12;100.00;97586.94;5039658;28;20487;-80
2023/11/08 08:12:07;;;;;;;9.35;4.53;;;;;;;4.25;100.00;97592.16;5027758;28;20408;-80
2023/11/08 08:14:33;;;;;;;7.05;4.30;;;;;;;4.37;100.00;97594.94;5022953;28;20456;-82
2023/11/08 08:17:02;;;;;;;6.80;3.63;;;;;;;4.50;100.00;97592.28;5017878;28;20479;-82
2023/11/08 08:19:31;;;;;;;8.63;3.90;;;;;;;4.62;100.00;97592.44;5019024;28;20448;-82
2023/11/08 08:22:00;;;;;;;9.77;4.35;;;;;;;4.69;100.00;97593.22;5026015;28;20858;-83
2023/11/08 08:24:28;;;;;;;7.97;3.78;;;;;;;4.78;100.00;97583.28;5034445;28;20539;-82
2023/11/08 08:26:56;;;;;;;14.32;4.20;;;;;;;4.86;100.00;97583.84;5024476;28;20474;-83
2023/11/08 08:29:24;;;;;;;9.47;3.70;;;;;;;5.02;100.00;97580.75;5032569;28;20403;-83
2023/11/08 08:31:50;;;;;;;4.28;2.85;;;;;;;5.27;100.00;97582.59;5039010;28;20864;-82
2023/11/08 08:34:16;;;;;;;4.13;2.50;;;;;;;5.76;100.00;97563.44;5021350;28;20400;-83
2023/11/08 08:36:42;;;;;;;9.27;2.83;;;;;;;6.31;100.00;97569.59;5024006;28;20414;-83
2023/11/08 08:39:09;;;;;;;3.78;2.00;;;;;;;6.82;100.00;97563.91;5039631;28;20402;-83
2023/11/08 08:41:36;;;;;;;5.80;1.88;;;;;;;7.13;100.00;97564.72;5040398;28;20609;-82
2023/11/08 08:44:03;;;;;;;8.13;1.92;;;;;;;7.40;100.00;97571.19;5037568;28;20486;-84
2023/11/08 08:46:29;;;;;;;8.57;1.80;;;;;;;7.62;100.00;97567.00;5038645;28;20405;-81
2023/11/08 08:48:56;;;;;;;5.15;1.70;;;;;;;7.75;100.00;97576.50;5038436;28;20484;-81
2023/11/08 08:51:22;;;;;;;2.85;1.67;;;;;;;7.69;100.00;97575.59;5036614;28;20867;-82
2023/11/08 08:53:48;;;;;;;2.63;1.50;;;;;;;7.88;100.00;97575.50;5021090;28;20404;-81
2023/11/08 08:56:15;;;;;;;3.95;1.48;;;;;;;8.07;100.00;97585.69;5032500;28;20462;-83
2023/11/08 08:58:42;;;;;;;4.32;2.00;;;;;;;8.27;100.00;97576.63;5037444;28;20399;-81
2023/11/08 09:01:11;;;;;;;3.57;1.80;;;;;;;8.46;100.00;97572.84;5032832;28;20404;-82
2023/11/08 09:03:37;;;;;;;2.43;1.33;;;;;;;8.52;100.00;97583.25;5018458;28;20401;-84
2023/11/08 09:06:04;;;;;;;4.78;1.50;;;;;;;8.46;100.00;97578.91;5018879;28;20885;-84
2023/11/08 09:08:31;;;;;;;3.50;1.27;;;;;;;8.43;100.00;97573.28;5019798;28;20404;-83
2023/11/08 09:10:57;;;;;;;3.10;1.30;;;;;;;8.41;100.00;97586.72;5019745;28;20496;-84
2023/11/08 09:13:23;;;;;;;5.40;2.13;;;;;;;8.20;100.00;97570.66;5025163;28;20403;-84
2023/11/08 09:15:52;;;;;;;4.13;1.45;;;;;;;8.15;100.00;97574.00;5039195;28;20407;-84
2023/11/08 09:18:18;;;;;;;2.75;1.40;;;;;;;8.13;100.00;97573.41;5038928;28;20422;-82
2023/11/08 09:20:44;;;;;;;5.53;1.48;;;;;;;7.93;100.00;97571.13;5039516;28;21187;-81
2023/11/08 09:23:11;;;;;;;5.10;1.97;;;;;;;8.10;100.00;97584.44;5038666;28;20753;-84
2023/11/08 09:25:37;;;;;;;2.65;1.40;;;;;;;8.12;100.00;97582.34;5037768;28;20399;-83
2023/11/08 09:28:04;;;;;;;5.70;1.73;;;;;;;8.02;100.00;97579.50;5038768;28;20446;-82
2023/11/08 09:30:33;;;;;;;2.53;1.40;;;;;;;8.30;100.00;97578.78;5038394;28;20414;-82
2023/11/08 09:33:00;;;;;;;3.55;1.38;;;;;;;8.59;100.00;97585.75;5030343;28;20393;-83
2023/11/08 09:35:26;;;;;;;7.32;1.40;;;;;;;8.75;100.00;97589.50;5018088;28;20433;-82
2023/11/08 09:37:55;;;;;;;2.15;1.15;;;;;;;8.91;100.00;97586.13;5019068;28;20455;-84
2023/11/08 09:40:21;;;;;;;2.35;1.30;;;;;;;9.36;100.00;97588.00;5018688;28;20472;-82
2023/11/08 09:42:48;;;;;;;2.63;1.30;;;;;;;9.86;100.00;97582.72;5022309;28;20400;-84
2023/11/08 09:45:17;;;;;;;7.32;1.88;;;;;;;10.40;100.00;97579.31;5019087;28;20488;-83
2023/11/08 09:47:45;;;;;;;2.33;1.20;;;;;;;10.77;100.00;97579.50;5018058;28;20405;-84
2023/11/08 09:50:12;;;;;;;2.97;1.10;;;;;;;10.94;100.00;97576.78;5017759;28;20393;-82
2023/11/08 09:52:38;;;;;;;2.13;1.20;;;;;;;11.31;100.00;97576.91;5017811;28;20929;-81
2023/11/08 09:55:06;;;;;;;3.15;1.20;;;;;;;11.57;100.00;97580.59;5018254;28;20404;-82
2023/11/08 09:57:35;;;;;;;1.93;1.20;;;;;;;11.96;100.00;97586.50;5017457;28;20443;-82
2023/11/08 10:00:03;;;;;;;3.57;1.20;;;;;;;12.41;100.00;97584.13;5016929;28;20987;-82
2023/11/08 10:02:30;;;;;;;2.50;1.05;;;;;;;12.68;100.00;97581.34;5017705;28;20404;-82
2023/11/08 10:04:59;;;;;;;1.10;1.00;;;;;;;12.96;100.00;97587.28;5021131;28;20424;-83
2023/11/08 10:07:27;;;;;;;1.57;1.00;;;;;;;13.46;100.00;97592.72;5026487;28;20470;-82
2023/11/08 10:09:53;;;;;;;0.90;0.90;;;;;;;13.70;100.00;97577.06;5003347;28;20420;-81
2023/11/08 10:12:20;;;;;;;1.67;1.00;;;;;;;13.98;100.00;97567.75;5020749;28;21070;-81
2023/11/08 10:14:57;;;;;;;4.03;1.08;;;;;;;13.93;100.00;97559.75;5021519;28;20503;-83
2023/11/08 10:17:35;;;;;;;1.17;0.90;;;;;;;13.26;100.00;97550.19;5022154;28;20416;-82
2023/11/08 10:20:01;;;;;;;2.17;1.23;;;;;;;12.50;100.00;97544.59;5021777;28;20956;-83
2023/11/08 10:22:29;;;;;;;2.90;1.20;;;;;;;11.96;100.00;97544.03;5020534;28;20461;-82
2023/11/08 10:24:57;;;;;;;2.10;1.10;;;;;;;11.86;100.00;97552.75;5021261;28;20432;-82
2023/11/08 10:27:23;;;;;;;2.10;1.30;;;;;;;11.70;100.00;97560.81;5031463;28;20408;-82
2023/11/08 10:29:51;;;;;;;1.95;1.20;;;;;;;11.55;100.00;97554.34;5031972;28;20493;-82
2023/11/08 10:32:19;;;;;;;2.20;1.20;;;;;;;11.74;100.00;97553.94;5040633;28;20864;-82
2023/11/08 10:34:46;;;;;;;1.98;1.10;;;;;;;11.94;100.00;97562.09;5020762;28;20454;-82
2023/11/08 10:37:24;;;;;;;2.13;1.20;;;;;;;11.84;100.00;97560.16;5020358;28;20816;-82
2023/11/08 10:39:52;;;;;;;1.65;1.27;;;;;;;11.61;100.00;97555.16;5019913;28;20405;-84
2023/11/08 10:42:20;;;;;;;2.60;1.20;;;;;;;10.90;100.00;97543.91;5020595;28;20428;-82
2023/11/08 10:44:46;;;;;;;3.77;1.67;;;;;;;10.45;100.00;97539.69;5020570;28;20499;-82
2023/11/08 10:47:15;;;;;;;3.83;1.38;;;;;;;10.46;100.00;97543.94;5020578;28;20436;-82
2023/11/08 10:49:46;;;;;;;1.90;1.10;;;;;;;10.89;100.00;97557.41;5020410;28;20435;-82
2023/11/08 10:52:12;;;;;;;1.90;1.20;;;;;;;11.73;100.00;97562.97;5020446;28;20404;-82
2023/11/08 10:54:39;;;;;;;2.60;1.20;;;;;;;12.09;100.00;97564.84;5020278;28;20457;-82
2023/11/08 10:57:09;;;;;;;3.30;1.60;;;;;;;12.41;100.00;97554.91;5020018;28;20516;-83
2023/11/08 10:59:36;;;;;;;2.33;1.25;;;;;;;12.36;100.00;97541.63;5025114;28;20420;-81
2023/11/08 11:02:20;;;;;;;2.35;1.40;;;;;;;12.64;100.00;97540.41;5028663;28;20414;-81
2023/11/08 11:04:50;;;;;;;1.95;1.10;;;;;;;12.37;100.00;97521.19;5041578;28;20387;-82
2023/11/08 11:07:17;;;;;;;2.50;1.38;;;;;;;11.87;100.00;97509.25;5040703;28;20391;-82
2023/11/08 11:09:43;;;;;;;5.40;1.60;;;;;;;11.39;100.00;97512.03;5039701;28;20434;-81
2023/11/08 11:12:18;;;;;;;5.10;1.40;;;;;;;10.99;100.00;97507.16;5040290;28;20453;-82
2023/11/08 11:14:51;;;;;;;3.85;1.30;;;;;;;10.47;100.00;97520.91;5039602;28;20835;-82
2023/11/08 11:17:27;;;;;;;5.13;1.70;;;;;;;10.17;100.00;97510.75;5040064;28;20415;-82
2023/11/08 11:19:57;;;;;;;1.95;1.33;;;;;;;9.91;100.00;97508.78;5040627;28;20434;-82
2023/11/08 11:22:23;;;;;;;1.63;1.40;;;;;;;9.67;100.00;97503.69;5039798;28;20395;-82
2023/11/08 11:24:52;;;;;;;3.17;1.67;;;;;;;9.43;100.00;97512.03;5041394;28;20923;-84
2023/11/08 11:27:44;;;;;;;2.33;1.52;;;;;;;9.27;100.00;97517.06;5043040;28;20403;-79